sensor_id;sensor_type;location;lat;lon;timestamp;temperature;humidity
20325;DHT22;10320;49.482;11.256;2023-04-28T20:39:40;13.30;99.90
20325;DHT22;10320;49.482;11.256;2023-04-28T20:42:06;13.10;99.90
20325;DHT22;10320;49.482;11.256;2023-04-28T20:44:31;13.10;99.90
20325;DHT22;10320;49.482;11.256;2023-04-28T20:46:58;13.20;99.90
20325;DHT22;10320;49.482;11.256;2023-04-28T20:49:26;13.10;99.90
20325;DHT22;10320;49.482;11.256;2023-04-28T20:51:51;13.10;99.90
20325;DHT22;10320;49.482;11.256;2023-04-28T20:54:17;12.80;99.90
20325;DHT22;10320;49.482;11.256;2023-04-28T20:56:42;13.00;99.90
20325;DHT22;10320;49.482;11.256;2023-04-28T20:59:09;12.90;99.90
20325;DHT22;10320;49.482;11.256;2023-04-28T21:01:35;12.50;99.90
20325;DHT22;10320;49.482;11.256;2023-04-28T21:04:01;12.90;99.90
20325;DHT22;10320;49.482;11.256;2023-04-28T21:06:26;12.90;99.90
20325;DHT22;10320;49.482;11.256;2023-04-28T21:08:52;12.90;99.90
20325;DHT22;10320;49.482;11.256;2023-04-28T21:11:18;12.80;99.90
20325;DHT22;10320;49.482;11.256;2023-04-28T21:13:44;12.80;99.90
20325;DHT22;10320;49.482;11.256;2023-04-28T21:16:14;12.90;99.90
20325;DHT22;10320;49.482;11.256;2023-04-28T21:18:41;12.80;99.90
20325;DHT22;10320;49.482;11.256;2023-04-28T21:21:07;13.00;99.90
20325;DHT22;10320;49.482;11.256;2023-04-28T21:23:33;12.80;99.90
20325;DHT22;10320;49.482;11.256;2023-04-28T21:26:01;13.00;99.90
20325;DHT22;10320;49.482;11.256;2023-04-28T21:28:26;12.80;99.90
20325;DHT22;10320;49.482;11.256;2023-04-28T21:30:53;12.80;99.90
20325;DHT22;10320;49.482;11.256;2023-04-28T21:33:19;12.70;99.90
20325;DHT22;10320;49.482;11.256;2023-04-28T21:35:47;12.60;99.90
20325;DHT22;10320;49.482;11.256;2023-04-28T21:38:12;12.80;99.90
20325;DHT22;10320;49.482;11.256;2023-04-28T21:40:38;12.60;99.90
20325;DHT22;10320;49.482;11.256;2023-04-28T21:43:04;12.60;99.90
20325;DHT22;10320;49.482;11.256;2023-04-28T21:45:30;12.80;99.90
20325;DHT22;10320;49.482;11.256;2023-04-28T21:47:56;12.60;99.90
20325;DHT22;10320;49.482;11.256;2023-04-28T21:50:24;12.80;99.90
20325;DHT22;10320;49.482;11.256;2023-04-28T21:52:50;12.60;99.90
20325;DHT22;10320;49.482;11.256;2023-04-28T21:55:16;12.70;99.90
20325;DHT22;10320;49.482;11.256;2023-04-28T21:57:42;12.60;99.90
20325;DHT22;10320;49.482;11.256;2023-04-28T22:00:08;12.60;99.90
20325;DHT22;10320;49.482;11.256;2023-04-28T22:02:39;12.40;99.90
20325;DHT22;10320;49.482;11.256;2023-04-28T22:05:05;12.40;99.90
20325;DHT22;10320;49.482;11.256;2023-04-28T22:07:31;12.40;99.90
20325;DHT22;10320;49.482;11.256;2023-04-28T22:09:57;12.50;99.90
20325;DHT22;10320;49.482;11.256;2023-04-28T22:12:23;12.40;99.90
20325;DHT22;10320;49.482;11.256;2023-04-28T22:14:49;12.50;99.90
20325;DHT22;10320;49.482;11.256;2023-04-28T22:17:15;12.40;99.90
20325;DHT22;10320;49.482;11.256;2023-04-28T22:19:41;12.40;99.90
20325;DHT22;10320;49.482;11.256;2023-04-28T22:22:07;12.40;99.90
20325;DHT22;10320;49.482;11.256;2023-04-28T22:24:33;12.40;99.90
20325;DHT22;10320;49.482;11.256;2023-04-28T22:26:59;12.40;99.90
20325;DHT22;10320;49.482;11.256;2023-04-28T22:29:24;12.40;99.90
20325;DHT22;10320;49.482;11.256;2023-04-28T22:31:50;12.40;99.90
20325;DHT22;10320;49.482;11.256;2023-04-28T22:34:17;12.40;99.90
20325;DHT22;10320;49.482;11.256;2023-04-28T22:36:43;12.40;99.90
20325;DHT22;10320;49.482;11.256;2023-04-28T22:39:10;12.40;99.90
20325;DHT22;10320;49.482;11.256;2023-04-28T22:41:36;12.40;99.90
20325;DHT22;10320;49.482;11.256;2023-04-28T22:44:02;12.40;99.90
20325;DHT22;10320;49.482;11.256;2023-04-28T22:46:27;12.30;99.90
20325;DHT22;10320;49.482;11.256;2023-04-28T22:48:54;12.30;99.90
20325;DHT22;10320;49.482;11.256;2023-04-28T22:51:20;12.20;99.90
20325;DHT22;10320;49.482;11.256;2023-04-28T22:53:45;12.10;99.90
20325;DHT22;10320;49.482;11.256;2023-04-28T22:56:13;12.00;99.90
20325;DHT22;10320;49.482;11.256;2023-04-28T22:58:38;11.90;99.90
20325;DHT22;10320;49.482;11.256;2023-04-28T23:01:04;11.00;99.90
20325;DHT22;10320;49.482;11.256;2023-04-28T23:03:29;11.70;99.90
20325;DHT22;10320;49.482;11.256;2023-04-28T23:05:55;11.60;99.90
20325;DHT22;10320;49.482;11.256;2023-04-28T23:08:21;11.60;99.90
20325;DHT22;10320;49.482;11.256;2023-04-28T23:10:47;11.60;99.90
20325;DHT22;10320;49.482;11.256;2023-04-28T23:13:13;11.60;99.90
20325;DHT22;10320;49.482;11.256;2023-04-28T23:15:39;11.50;99.90
20325;DHT22;10320;49.482;11.256;2023-04-28T23:18:05;11.40;99.90
20325;DHT22;10320;49.482;11.256;2023-04-28T23:20:34;11.30;99.90
20325;DHT22;10320;49.482;11.256;2023-04-28T23:22:59;11.40;99.90
20325;DHT22;10320;49.482;11.256;2023-04-28T23:25:25;11.40;99.90
20325;DHT22;10320;49.482;11.256;2023-04-28T23:27:51;11.40;99.90
20325;DHT22;10320;49.482;11.256;2023-04-28T23:30:17;11.40;99.90
20325;DHT22;10320;49.482;11.256;2023-04-28T23:32:43;11.30;99.90
20325;DHT22;10320;49.482;11.256;2023-04-28T23:35:09;11.20;99.90
20325;DHT22;10320;49.482;11.256;2023-04-28T23:37:35;11.20;99.90
20325;DHT22;10320;49.482;11.256;2023-04-28T23:40:02;11.10;99.90
20325;DHT22;10320;49.482;11.256;2023-04-28T23:42:28;11.00;99.90
20325;DHT22;10320;49.482;11.256;2023-04-28T23:44:54;11.00;99.90
20325;DHT22;10320;49.482;11.256;2023-04-28T23:47:20;10.90;99.90
20325;DHT22;10320;49.482;11.256;2023-04-28T23:49:45;10.80;99.90
20325;DHT22;10320;49.482;11.256;2023-04-28T23:52:11;10.80;99.90
20325;DHT22;10320;49.482;11.256;2023-04-28T23:54:37;10.80;99.90
20325;DHT22;10320;49.482;11.256;2023-04-28T23:57:02;10.90;99.90
20325;DHT22;10320;49.482;11.256;2023-04-28T23:59:28;11.00;99.90
